KRWL/RWL METAR and TAF weather

Enter ICAO airport designator
Station Type Date Time Source
KRWL METAR 2019/10/23 20:53 UTC NOAA

KRWL 232053Z AUTO 01013KT 10SM BKN037 04/M06 A3016 RMK AO2 SNB1957E11 SLP198 P0000 60000 T00391061 50000


Station Type Date Time Source
KRWL Decoded METAR 2019/10/23 20:53 UTC NOAA

RAWLINS MUNICIPAL AIRPORT, WY, United States (KRWL) 41-48N 107-12W
Oct 23, 2019 - 04:53 PM EDT / 2019.10.23 2053 UTC
Wind: from the N (010 degrees) at 15 MPH (13 KT):0
Visibility: 10 mile(s):0
Sky conditions: mostly cloudy
Precipitation last hour: A trace
Temperature: 39.0 F (3.9 C)
Dew Point: 21.0 F (-6.1 C)
Relative Humidity: 48%
Pressure (altimeter): 30.16 in. Hg (1021 hPa)
Pressure tendency: 0.00 inches (0.0 hPa) higher than three hours ago
ob: KRWL 232053Z AUTO 01013KT 10SM BKN037 04/M06 A3016 RMK AO2 SNB1957E11 SLP198 P0000 60000 T00391061 50000
cycle: 21

Station Type Date Time Source
KRWL TAF 2019/10/23 18:58 UTC NOAA

TAF KRWL 231757Z 2318/2418 35015KT P6SM BKN110
FM232100 03008KT P6SM VCSH OVC070
FM240400 VRB04KT P6SM SCT060

Example: see airport list